sensor_id;sensor_type;location;lat;lon;timestamp;P1;durP1;ratioP1;P2;durP2;ratioP2
15693;SDS011;7947;48.834;9.132;2022-08-11T00:00:14;4.60;;;1.58;;
15693;SDS011;7947;48.834;9.132;2022-08-11T00:03:34;5.97;;;2.10;;
15693;SDS011;7947;48.834;9.132;2022-08-11T00:06:49;2.05;;;1.60;;
15693;SDS011;7947;48.834;9.132;2022-08-11T00:09:59;4.15;;;1.63;;
15693;SDS011;7947;48.834;9.132;2022-08-11T00:13:14;4.22;;;1.55;;
15693;SDS011;7947;48.834;9.132;2022-08-11T00:16:37;1.63;;;1.33;;
15693;SDS011;7947;48.834;9.132;2022-08-11T00:19:46;4.38;;;1.85;;
15693;SDS011;7947;48.834;9.132;2022-08-11T00:23:17;2.13;;;1.70;;
15693;SDS011;7947;48.834;9.132;2022-08-11T00:26:30;2.58;;;1.90;;
15693;SDS011;7947;48.834;9.132;2022-08-11T00:29:39;2.85;;;1.50;;
15693;SDS011;7947;48.834;9.132;2022-08-11T00:33:01;2.70;;;1.90;;
15693;SDS011;7947;48.834;9.132;2022-08-11T00:36:18;1.83;;;1.67;;
15693;SDS011;7947;48.834;9.132;2022-08-11T00:39:41;6.43;;;1.98;;
15693;SDS011;7947;48.834;9.132;2022-08-11T00:43:03;2.78;;;1.65;;
15693;SDS011;7947;48.834;9.132;2022-08-11T00:46:30;2.97;;;1.73;;
15693;SDS011;7947;48.834;9.132;2022-08-11T00:49:56;3.67;;;1.60;;
15693;SDS011;7947;48.834;9.132;2022-08-11T00:53:22;2.80;;;1.67;;
15693;SDS011;7947;48.834;9.132;2022-08-11T01:00:47;3.05;;;1.70;;
15693;SDS011;7947;48.834;9.132;2022-08-11T01:08:12;1.52;;;1.42;;
15693;SDS011;7947;48.834;9.132;2022-08-11T01:19:31;3.42;;;2.22;;
15693;SDS011;7947;48.834;9.132;2022-08-11T01:46:53;2.53;;;2.00;;
15693;SDS011;7947;48.834;9.132;2022-08-11T01:50:14;2.42;;;1.77;;
15693;SDS011;7947;48.834;9.132;2022-08-11T01:53:33;3.83;;;1.80;;
15693;SDS011;7947;48.834;9.132;2022-08-11T01:56:52;2.25;;;1.83;;
15693;SDS011;7947;48.834;9.132;2022-08-11T02:00:15;2.42;;;1.92;;
15693;SDS011;7947;48.834;9.132;2022-08-11T02:03:25;4.50;;;2.03;;
15693;SDS011;7947;48.834;9.132;2022-08-11T02:06:44;2.30;;;1.73;;
15693;SDS011;7947;48.834;9.132;2022-08-11T02:10:08;2.72;;;2.30;;
15693;SDS011;7947;48.834;9.132;2022-08-11T02:13:44;3.28;;;1.70;;
15693;SDS011;7947;48.834;9.132;2022-08-11T02:17:12;4.00;;;1.75;;
15693;SDS011;7947;48.834;9.132;2022-08-11T02:20:27;5.60;;;1.90;;
15693;SDS011;7947;48.834;9.132;2022-08-11T02:24:00;2.58;;;1.95;;
15693;SDS011;7947;48.834;9.132;2022-08-11T02:27:17;2.38;;;2.00;;
15693;SDS011;7947;48.834;9.132;2022-08-11T02:30:30;2.10;;;1.90;;
15693;SDS011;7947;48.834;9.132;2022-08-11T02:33:46;2.92;;;1.90;;
15693;SDS011;7947;48.834;9.132;2022-08-11T02:36:59;2.63;;;2.00;;
15693;SDS011;7947;48.834;9.132;2022-08-11T02:40:27;2.40;;;1.98;;
15693;SDS011;7947;48.834;9.132;2022-08-11T02:43:48;2.15;;;1.95;;
15693;SDS011;7947;48.834;9.132;2022-08-11T02:47:12;2.33;;;2.03;;
15693;SDS011;7947;48.834;9.132;2022-08-11T02:50:34;3.60;;;1.95;;
15693;SDS011;7947;48.834;9.132;2022-08-11T02:53:48;2.47;;;2.28;;
15693;SDS011;7947;48.834;9.132;2022-08-11T02:57:05;2.90;;;1.98;;
15693;SDS011;7947;48.834;9.132;2022-08-11T03:00:28;3.03;;;2.10;;
15693;SDS011;7947;48.834;9.132;2022-08-11T03:04:05;3.25;;;2.13;;
15693;SDS011;7947;48.834;9.132;2022-08-11T03:07:40;4.35;;;2.00;;
15693;SDS011;7947;48.834;9.132;2022-08-11T03:11:18;3.10;;;1.80;;
15693;SDS011;7947;48.834;9.132;2022-08-11T03:14:58;3.55;;;2.08;;
15693;SDS011;7947;48.834;9.132;2022-08-11T03:18:44;2.45;;;2.17;;
15693;SDS011;7947;48.834;9.132;2022-08-11T03:22:06;2.63;;;2.00;;
15693;SDS011;7947;48.834;9.132;2022-08-11T03:25:20;3.67;;;2.00;;
15693;SDS011;7947;48.834;9.132;2022-08-11T03:28:35;3.25;;;2.30;;
15693;SDS011;7947;48.834;9.132;2022-08-11T03:31:53;3.95;;;2.47;;
15693;SDS011;7947;48.834;9.132;2022-08-11T03:35:07;3.08;;;2.55;;
15693;SDS011;7947;48.834;9.132;2022-08-11T03:38:22;2.20;;;2.00;;
15693;SDS011;7947;48.834;9.132;2022-08-11T03:41:37;2.80;;;2.35;;
15693;SDS011;7947;48.834;9.132;2022-08-11T03:45:09;3.28;;;2.22;;
15693;SDS011;7947;48.834;9.132;2022-08-11T03:48:28;3.05;;;2.70;;
15693;SDS011;7947;48.834;9.132;2022-08-11T03:51:49;3.63;;;2.72;;
15693;SDS011;7947;48.834;9.132;2022-08-11T03:55:07;3.55;;;2.53;;
15693;SDS011;7947;48.834;9.132;2022-08-11T03:58:38;3.70;;;2.72;;
15693;SDS011;7947;48.834;9.132;2022-08-11T04:02:07;2.35;;;2.15;;
15693;SDS011;7947;48.834;9.132;2022-08-11T04:05:48;3.10;;;2.50;;
15693;SDS011;7947;48.834;9.132;2022-08-11T04:16:46;3.92;;;2.20;;
15693;SDS011;7947;48.834;9.132;2022-08-11T04:20:17;3.60;;;2.50;;
15693;SDS011;7947;48.834;9.132;2022-08-11T04:27:58;5.00;;;2.65;;
15693;SDS011;7947;48.834;9.132;2022-08-11T04:31:34;4.43;;;2.42;;
15693;SDS011;7947;48.834;9.132;2022-08-11T04:35:01;4.35;;;2.70;;
15693;SDS011;7947;48.834;9.132;2022-08-11T04:38:34;4.35;;;2.47;;
15693;SDS011;7947;48.834;9.132;2022-08-11T04:50:02;2.40;;;2.20;;
15693;SDS011;7947;48.834;9.132;2022-08-11T04:53:40;3.20;;;2.55;;
15693;SDS011;7947;48.834;9.132;2022-08-11T04:57:13;3.15;;;2.25;;
15693;SDS011;7947;48.834;9.132;2022-08-11T05:00:50;4.15;;;2.40;;
15693;SDS011;7947;48.834;9.132;2022-08-11T05:04:44;3.22;;;2.25;;
15693;SDS011;7947;48.834;9.132;2022-08-11T05:15:41;4.75;;;2.13;;
15693;SDS011;7947;48.834;9.132;2022-08-11T05:19:13;3.28;;;2.33;;
15693;SDS011;7947;48.834;9.132;2022-08-11T05:22:43;5.65;;;2.47;;
15693;SDS011;7947;48.834;9.132;2022-08-11T05:26:10;2.83;;;2.17;;
15693;SDS011;7947;48.834;9.132;2022-08-11T05:29:52;5.53;;;2.15;;
15693;SDS011;7947;48.834;9.132;2022-08-11T05:33:19;3.65;;;2.05;;
15693;SDS011;7947;48.834;9.132;2022-08-11T05:36:44;4.88;;;2.50;;
15693;SDS011;7947;48.834;9.132;2022-08-11T05:39:52;3.75;;;2.22;;
15693;SDS011;7947;48.834;9.132;2022-08-11T05:43:16;3.33;;;2.35;;
15693;SDS011;7947;48.834;9.132;2022-08-11T05:46:40;7.75;;;2.67;;
15693;SDS011;7947;48.834;9.132;2022-08-11T05:50:01;5.88;;;2.35;;
15693;SDS011;7947;48.834;9.132;2022-08-11T05:53:33;8.68;;;2.90;;
15693;SDS011;7947;48.834;9.132;2022-08-11T05:56:55;4.85;;;2.97;;
15693;SDS011;7947;48.834;9.132;2022-08-11T06:00:01;4.70;;;2.30;;
15693;SDS011;7947;48.834;9.132;2022-08-11T06:03:11;7.80;;;2.50;;
15693;SDS011;7947;48.834;9.132;2022-08-11T06:06:24;6.10;;;2.60;;
15693;SDS011;7947;48.834;9.132;2022-08-11T06:09:30;3.88;;;3.00;;
15693;SDS011;7947;48.834;9.132;2022-08-11T06:12:36;4.93;;;2.22;;
15693;SDS011;7947;48.834;9.132;2022-08-11T06:15:44;5.85;;;2.60;;
15693;SDS011;7947;48.834;9.132;2022-08-11T06:18:48;4.38;;;2.47;;
15693;SDS011;7947;48.834;9.132;2022-08-11T06:21:51;4.65;;;2.40;;
15693;SDS011;7947;48.834;9.132;2022-08-11T06:24:55;6.00;;;2.60;;
15693;SDS011;7947;48.834;9.132;2022-08-11T06:28:00;4.88;;;2.15;;
15693;SDS011;7947;48.834;9.132;2022-08-11T06:31:10;3.25;;;2.03;;
15693;SDS011;7947;48.834;9.132;2022-08-11T06:34:19;3.40;;;2.38;;
15693;SDS011;7947;48.834;9.132;2022-08-11T06:37:38;6.10;;;2.40;;
15693;SDS011;7947;48.834;9.132;2022-08-11T06:40:48;5.72;;;2.83;;
15693;SDS011;7947;48.834;9.132;2022-08-11T06:44:15;4.70;;;2.17;;
15693;SDS011;7947;48.834;9.132;2022-08-11T06:47:25;3.63;;;2.00;;
15693;SDS011;7947;48.834;9.132;2022-08-11T06:50:29;2.38;;;2.10;;
15693;SDS011;7947;48.834;9.132;2022-08-11T06:53:52;5.22;;;2.20;;
15693;SDS011;7947;48.834;9.132;2022-08-11T06:57:05;4.22;;;2.45;;
15693;SDS011;7947;48.834;9.132;2022-08-11T07:00:32;7.55;;;2.53;;
15693;SDS011;7947;48.834;9.132;2022-08-11T07:03:41;5.22;;;2.60;;
15693;SDS011;7947;48.834;9.132;2022-08-11T07:06:53;4.25;;;2.20;;
15693;SDS011;7947;48.834;9.132;2022-08-11T07:10:26;3.10;;;2.13;;
15693;SDS011;7947;48.834;9.132;2022-08-11T07:14:01;2.40;;;2.10;;
15693;SDS011;7947;48.834;9.132;2022-08-11T07:17:25;5.13;;;2.30;;
15693;SDS011;7947;48.834;9.132;2022-08-11T07:20:30;3.97;;;2.22;;
15693;SDS011;7947;48.834;9.132;2022-08-11T07:23:51;5.35;;;2.40;;
15693;SDS011;7947;48.834;9.132;2022-08-11T07:27:14;4.07;;;2.42;;
15693;SDS011;7947;48.834;9.132;2022-08-11T07:30:39;3.63;;;2.58;;
15693;SDS011;7947;48.834;9.132;2022-08-11T07:33:45;3.45;;;2.80;;
15693;SDS011;7947;48.834;9.132;2022-08-11T07:37:09;3.45;;;2.42;;
15693;SDS011;7947;48.834;9.132;2022-08-11T07:40:19;4.47;;;2.53;;
15693;SDS011;7947;48.834;9.132;2022-08-11T07:43:35;4.78;;;2.15;;
15693;SDS011;7947;48.834;9.132;2022-08-11T07:46:46;4.07;;;2.13;;
15693;SDS011;7947;48.834;9.132;2022-08-11T07:50:13;5.63;;;2.00;;
15693;SDS011;7947;48.834;9.132;2022-08-11T07:53:37;34.58;;;3.58;;
15693;SDS011;7947;48.834;9.132;2022-08-11T07:57:06;3.03;;;2.40;;
15693;SDS011;7947;48.834;9.132;2022-08-11T08:00:48;2.45;;;2.20;;
15693;SDS011;7947;48.834;9.132;2022-08-11T08:04:22;3.90;;;1.90;;
15693;SDS011;7947;48.834;9.132;2022-08-11T08:07:49;2.75;;;2.33;;
15693;SDS011;7947;48.834;9.132;2022-08-11T08:11:09;6.38;;;2.22;;
15693;SDS011;7947;48.834;9.132;2022-08-11T08:14:31;3.70;;;2.15;;
15693;SDS011;7947;48.834;9.132;2022-08-11T08:17:53;3.65;;;2.30;;
15693;SDS011;7947;48.834;9.132;2022-08-11T08:21:18;5.18;;;2.40;;
15693;SDS011;7947;48.834;9.132;2022-08-11T08:24:22;4.45;;;2.30;;
15693;SDS011;7947;48.834;9.132;2022-08-11T08:27:29;4.13;;;2.03;;
15693;SDS011;7947;48.834;9.132;2022-08-11T08:30:32;3.78;;;2.38;;
15693;SDS011;7947;48.834;9.132;2022-08-11T08:33:51;2.70;;;1.92;;
15693;SDS011;7947;48.834;9.132;2022-08-11T08:36:54;2.60;;;2.10;;
15693;SDS011;7947;48.834;9.132;2022-08-11T08:39:58;3.67;;;2.08;;
15693;SDS011;7947;48.834;9.132;2022-08-11T08:43:02;2.15;;;1.90;;
15693;SDS011;7947;48.834;9.132;2022-08-11T08:46:10;2.00;;;1.80;;
15693;SDS011;7947;48.834;9.132;2022-08-11T08:49:16;2.60;;;1.88;;
15693;SDS011;7947;48.834;9.132;2022-08-11T08:52:21;4.05;;;1.98;;
15693;SDS011;7947;48.834;9.132;2022-08-11T08:55:38;3.38;;;2.20;;
15693;SDS011;7947;48.834;9.132;2022-08-11T08:58:47;2.47;;;1.83;;
15693;SDS011;7947;48.834;9.132;2022-08-11T09:01:52;2.55;;;1.98;;
15693;SDS011;7947;48.834;9.132;2022-08-11T09:04:59;3.50;;;2.22;;
15693;SDS011;7947;48.834;9.132;2022-08-11T09:08:02;1.88;;;1.50;;
15693;SDS011;7947;48.834;9.132;2022-08-11T09:11:09;5.28;;;1.85;;
15693;SDS011;7947;48.834;9.132;2022-08-11T09:14:32;2.70;;;1.50;;
15693;SDS011;7947;48.834;9.132;2022-08-11T09:17:56;2.22;;;1.98;;
15693;SDS011;7947;48.834;9.132;2022-08-11T09:21:04;2.40;;;1.83;;
15693;SDS011;7947;48.834;9.132;2022-08-11T09:24:07;4.45;;;1.73;;
15693;SDS011;7947;48.834;9.132;2022-08-11T09:27:29;4.03;;;1.75;;
15693;SDS011;7947;48.834;9.132;2022-08-11T09:30:33;4.93;;;1.90;;
15693;SDS011;7947;48.834;9.132;2022-08-11T09:33:37;5.80;;;1.70;;
15693;SDS011;7947;48.834;9.132;2022-08-11T09:36:43;3.72;;;1.65;;
15693;SDS011;7947;48.834;9.132;2022-08-11T09:40:04;2.55;;;1.70;;
15693;SDS011;7947;48.834;9.132;2022-08-11T09:43:29;2.10;;;1.77;;
15693;SDS011;7947;48.834;9.132;2022-08-11T09:46:50;5.60;;;1.70;;
15693;SDS011;7947;48.834;9.132;2022-08-11T09:49:57;2.45;;;1.60;;
15693;SDS011;7947;48.834;9.132;2022-08-11T09:53:01;2.30;;;1.80;;
15693;SDS011;7947;48.834;9.132;2022-08-11T09:56:26;4.07;;;1.25;;
15693;SDS011;7947;48.834;9.132;2022-08-11T09:59:49;2.13;;;1.63;;
15693;SDS011;7947;48.834;9.132;2022-08-11T10:03:14;4.80;;;1.63;;
15693;SDS011;7947;48.834;9.132;2022-08-11T10:06:18;5.43;;;1.45;;
15693;SDS011;7947;48.834;9.132;2022-08-11T10:09:48;2.38;;;1.50;;
15693;SDS011;7947;48.834;9.132;2022-08-11T10:12:56;2.55;;;1.20;;
15693;SDS011;7947;48.834;9.132;2022-08-11T10:16:06;3.60;;;1.40;;
15693;SDS011;7947;48.834;9.132;2022-08-11T10:19:16;8.60;;;1.70;;
15693;SDS011;7947;48.834;9.132;2022-08-11T10:22:22;4.10;;;1.63;;
15693;SDS011;7947;48.834;9.132;2022-08-11T10:25:43;2.90;;;1.60;;
15693;SDS011;7947;48.834;9.132;2022-08-11T10:29:05;3.78;;;1.48;;
15693;SDS011;7947;48.834;9.132;2022-08-11T10:32:38;3.05;;;1.90;;
15693;SDS011;7947;48.834;9.132;2022-08-11T10:36:00;4.75;;;1.75;;
15693;SDS011;7947;48.834;9.132;2022-08-11T10:39:17;2.75;;;1.42;;
15693;SDS011;7947;48.834;9.132;2022-08-11T10:42:22;2.70;;;1.40;;
15693;SDS011;7947;48.834;9.132;2022-08-11T10:45:58;4.30;;;1.50;;
15693;SDS011;7947;48.834;9.132;2022-08-11T10:49:31;3.92;;;1.80;;
15693;SDS011;7947;48.834;9.132;2022-08-11T10:52:34;2.05;;;1.50;;
15693;SDS011;7947;48.834;9.132;2022-08-11T10:55:56;2.28;;;1.60;;
15693;SDS011;7947;48.834;9.132;2022-08-11T10:59:18;2.40;;;1.48;;
15693;SDS011;7947;48.834;9.132;2022-08-11T11:02:23;3.10;;;1.45;;
15693;SDS011;7947;48.834;9.132;2022-08-11T11:05:29;1.63;;;1.40;;
15693;SDS011;7947;48.834;9.132;2022-08-11T11:08:35;7.72;;;1.70;;
15693;SDS011;7947;48.834;9.132;2022-08-11T11:12:02;3.28;;;1.55;;
15693;SDS011;7947;48.834;9.132;2022-08-11T11:15:30;4.10;;;1.50;;
15693;SDS011;7947;48.834;9.132;2022-08-11T11:18:53;2.97;;;1.60;;
15693;SDS011;7947;48.834;9.132;2022-08-11T11:22:03;1.98;;;1.48;;
15693;SDS011;7947;48.834;9.132;2022-08-11T11:25:21;3.05;;;1.60;;
15693;SDS011;7947;48.834;9.132;2022-08-11T11:28:50;2.78;;;1.50;;
15693;SDS011;7947;48.834;9.132;2022-08-11T11:35:29;1.67;;;1.40;;
15693;SDS011;7947;48.834;9.132;2022-08-11T11:38:40;2.97;;;1.52;;
15693;SDS011;7947;48.834;9.132;2022-08-11T11:41:44;4.03;;;1.40;;
15693;SDS011;7947;48.834;9.132;2022-08-11T11:44:47;4.43;;;1.60;;
15693;SDS011;7947;48.834;9.132;2022-08-11T11:47:56;1.55;;;1.45;;
15693;SDS011;7947;48.834;9.132;2022-08-11T11:51:01;1.75;;;1.35;;
15693;SDS011;7947;48.834;9.132;2022-08-11T11:54:05;2.75;;;1.60;;
15693;SDS011;7947;48.834;9.132;2022-08-11T11:57:11;4.07;;;1.65;;
15693;SDS011;7947;48.834;9.132;2022-08-11T12:00:35;2.25;;;1.60;;
15693;SDS011;7947;48.834;9.132;2022-08-11T12:03:56;3.60;;;1.50;;
15693;SDS011;7947;48.834;9.132;2022-08-11T12:06:59;3.05;;;1.45;;
15693;SDS011;7947;48.834;9.132;2022-08-11T12:10:18;3.25;;;1.33;;
15693;SDS011;7947;48.834;9.132;2022-08-11T12:13:21;1.67;;;1.42;;
15693;SDS011;7947;48.834;9.132;2022-08-11T12:16:41;3.13;;;1.38;;
15693;SDS011;7947;48.834;9.132;2022-08-11T12:19:46;2.80;;;1.30;;
15693;SDS011;7947;48.834;9.132;2022-08-11T12:22:50;1.75;;;1.30;;
15693;SDS011;7947;48.834;9.132;2022-08-11T12:26:16;3.88;;;1.90;;
15693;SDS011;7947;48.834;9.132;2022-08-11T12:29:37;1.90;;;1.35;;
15693;SDS011;7947;48.834;9.132;2022-08-11T12:32:41;4.95;;;1.90;;
15693;SDS011;7947;48.834;9.132;2022-08-11T12:35:45;1.75;;;1.27;;
15693;SDS011;7947;48.834;9.132;2022-08-11T12:39:02;6.32;;;1.60;;
15693;SDS011;7947;48.834;9.132;2022-08-11T12:42:26;2.55;;;1.30;;
15693;SDS011;7947;48.834;9.132;2022-08-11T12:45:56;2.22;;;1.50;;
15693;SDS011;7947;48.834;9.132;2022-08-11T12:49:03;3.20;;;1.90;;
15693;SDS011;7947;48.834;9.132;2022-08-11T12:52:31;2.80;;;1.38;;
15693;SDS011;7947;48.834;9.132;2022-08-11T12:55:37;4.72;;;1.45;;
15693;SDS011;7947;48.834;9.132;2022-08-11T12:59:09;3.55;;;1.60;;
15693;SDS011;7947;48.834;9.132;2022-08-11T13:02:30;2.60;;;1.33;;
15693;SDS011;7947;48.834;9.132;2022-08-11T13:05:52;1.92;;;1.45;;
15693;SDS011;7947;48.834;9.132;2022-08-11T13:08:57;5.30;;;1.70;;
15693;SDS011;7947;48.834;9.132;2022-08-11T13:12:02;6.00;;;1.60;;
15693;SDS011;7947;48.834;9.132;2022-08-11T13:15:23;1.38;;;1.23;;
15693;SDS011;7947;48.834;9.132;2022-08-11T13:18:27;10.25;;;2.10;;
15693;SDS011;7947;48.834;9.132;2022-08-11T13:21:30;3.50;;;1.45;;
15693;SDS011;7947;48.834;9.132;2022-08-11T13:24:33;6.95;;;1.40;;
15693;SDS011;7947;48.834;9.132;2022-08-11T13:27:37;2.83;;;1.20;;
15693;SDS011;7947;48.834;9.132;2022-08-11T13:30:42;2.67;;;1.40;;
15693;SDS011;7947;48.834;9.132;2022-08-11T13:34:03;4.28;;;1.33;;
15693;SDS011;7947;48.834;9.132;2022-08-11T13:37:10;3.40;;;1.30;;
15693;SDS011;7947;48.834;9.132;2022-08-11T13:40:16;2.05;;;1.30;;
15693;SDS011;7947;48.834;9.132;2022-08-11T13:43:41;2.35;;;1.30;;
15693;SDS011;7947;48.834;9.132;2022-08-11T13:46:46;3.83;;;1.30;;
15693;SDS011;7947;48.834;9.132;2022-08-11T13:49:53;2.08;;;1.35;;
15693;SDS011;7947;48.834;9.132;2022-08-11T13:52:57;4.57;;;1.30;;
15693;SDS011;7947;48.834;9.132;2022-08-11T13:56:00;6.20;;;1.40;;
15693;SDS011;7947;48.834;9.132;2022-08-11T13:59:04;1.98;;;1.27;;
15693;SDS011;7947;48.834;9.132;2022-08-11T14:02:14;2.17;;;1.40;;
15693;SDS011;7947;48.834;9.132;2022-08-11T14:05:30;1.73;;;1.25;;
15693;SDS011;7947;48.834;9.132;2022-08-11T14:08:40;1.58;;;1.13;;
15693;SDS011;7947;48.834;9.132;2022-08-11T14:11:47;2.92;;;1.20;;
15693;SDS011;7947;48.834;9.132;2022-08-11T14:15:26;1.75;;;1.38;;
15693;SDS011;7947;48.834;9.132;2022-08-11T14:18:34;1.45;;;1.15;;
15693;SDS011;7947;48.834;9.132;2022-08-11T14:21:42;1.42;;;1.20;;
15693;SDS011;7947;48.834;9.132;2022-08-11T14:25:08;3.25;;;1.50;;
15693;SDS011;7947;48.834;9.132;2022-08-11T14:28:12;2.47;;;1.20;;
15693;SDS011;7947;48.834;9.132;2022-08-11T14:31:37;3.80;;;1.35;;
15693;SDS011;7947;48.834;9.132;2022-08-11T14:34:46;1.63;;;1.20;;
15693;SDS011;7947;48.834;9.132;2022-08-11T14:37:50;2.85;;;1.35;;
15693;SDS011;7947;48.834;9.132;2022-08-11T14:40:53;1.35;;;1.13;;
15693;SDS011;7947;48.834;9.132;2022-08-11T14:44:14;2.05;;;1.42;;
15693;SDS011;7947;48.834;9.132;2022-08-11T14:47:35;2.42;;;1.00;;
15693;SDS011;7947;48.834;9.132;2022-08-11T14:50:40;2.05;;;1.20;;
15693;SDS011;7947;48.834;9.132;2022-08-11T14:53:43;10.05;;;1.42;;
15693;SDS011;7947;48.834;9.132;2022-08-11T14:56:59;2.97;;;1.30;;
15693;SDS011;7947;48.834;9.132;2022-08-11T15:00:04;3.65;;;1.27;;
15693;SDS011;7947;48.834;9.132;2022-08-11T15:03:09;2.38;;;1.30;;
15693;SDS011;7947;48.834;9.132;2022-08-11T15:06:16;2.97;;;1.20;;
15693;SDS011;7947;48.834;9.132;2022-08-11T15:09:19;5.80;;;1.40;;
15693;SDS011;7947;48.834;9.132;2022-08-11T15:12:22;3.30;;;1.35;;
15693;SDS011;7947;48.834;9.132;2022-08-11T15:15:33;1.67;;;1.50;;
15693;SDS011;7947;48.834;9.132;2022-08-11T15:18:55;0.98;;;0.98;;
15693;SDS011;7947;48.834;9.132;2022-08-11T15:22:00;3.65;;;1.48;;
15693;SDS011;7947;48.834;9.132;2022-08-11T15:25:26;6.38;;;1.42;;
15693;SDS011;7947;48.834;9.132;2022-08-11T15:28:32;2.22;;;1.10;;
15693;SDS011;7947;48.834;9.132;2022-08-11T15:31:56;1.90;;;1.40;;
15693;SDS011;7947;48.834;9.132;2022-08-11T15:35:17;2.38;;;1.40;;
15693;SDS011;7947;48.834;9.132;2022-08-11T15:38:43;3.90;;;1.52;;
15693;SDS011;7947;48.834;9.132;2022-08-11T15:41:56;3.28;;;1.30;;
15693;SDS011;7947;48.834;9.132;2022-08-11T15:45:21;2.60;;;1.13;;
15693;SDS011;7947;48.834;9.132;2022-08-11T15:48:44;2.55;;;1.45;;
15693;SDS011;7947;48.834;9.132;2022-08-11T15:51:54;1.83;;;1.10;;
15693;SDS011;7947;48.834;9.132;2022-08-11T15:55:05;3.15;;;1.50;;
15693;SDS011;7947;48.834;9.132;2022-08-11T15:58:09;2.70;;;1.15;;
15693;SDS011;7947;48.834;9.132;2022-08-11T16:01:32;3.08;;;1.23;;
15693;SDS011;7947;48.834;9.132;2022-08-11T16:04:55;4.43;;;1.50;;
15693;SDS011;7947;48.834;9.132;2022-08-11T16:08:06;2.88;;;1.33;;
15693;SDS011;7947;48.834;9.132;2022-08-11T16:11:14;5.15;;;1.75;;
15693;SDS011;7947;48.834;9.132;2022-08-11T16:14:18;3.50;;;1.65;;
15693;SDS011;7947;48.834;9.132;2022-08-11T16:17:39;2.75;;;1.30;;
15693;SDS011;7947;48.834;9.132;2022-08-11T16:20:45;2.72;;;1.50;;
15693;SDS011;7947;48.834;9.132;2022-08-11T16:23:51;3.53;;;1.35;;
15693;SDS011;7947;48.834;9.132;2022-08-11T16:26:58;8.38;;;1.60;;
15693;SDS011;7947;48.834;9.132;2022-08-11T16:30:14;4.97;;;1.65;;
15693;SDS011;7947;48.834;9.132;2022-08-11T16:33:17;1.45;;;1.25;;
15693;SDS011;7947;48.834;9.132;2022-08-11T16:36:44;2.17;;;1.38;;
15693;SDS011;7947;48.834;9.132;2022-08-11T16:40:04;3.15;;;1.75;;
15693;SDS011;7947;48.834;9.132;2022-08-11T16:43:12;2.83;;;1.40;;
15693;SDS011;7947;48.834;9.132;2022-08-11T16:46:36;2.55;;;1.50;;
15693;SDS011;7947;48.834;9.132;2022-08-11T16:49:56;2.95;;;1.42;;
15693;SDS011;7947;48.834;9.132;2022-08-11T16:53:00;2.95;;;1.40;;
15693;SDS011;7947;48.834;9.132;2022-08-11T16:56:04;3.80;;;1.33;;
15693;SDS011;7947;48.834;9.132;2022-08-11T16:59:13;1.85;;;1.38;;
15693;SDS011;7947;48.834;9.132;2022-08-11T17:02:19;8.95;;;1.52;;
15693;SDS011;7947;48.834;9.132;2022-08-11T17:05:41;3.08;;;1.38;;
15693;SDS011;7947;48.834;9.132;2022-08-11T17:09:07;3.33;;;1.25;;
15693;SDS011;7947;48.834;9.132;2022-08-11T17:12:30;1.95;;;1.20;;
15693;SDS011;7947;48.834;9.132;2022-08-11T17:15:55;2.10;;;1.27;;
15693;SDS011;7947;48.834;9.132;2022-08-11T17:19:09;5.57;;;1.40;;
15693;SDS011;7947;48.834;9.132;2022-08-11T17:22:14;2.40;;;1.20;;
15693;SDS011;7947;48.834;9.132;2022-08-11T17:25:36;2.90;;;1.42;;
15693;SDS011;7947;48.834;9.132;2022-08-11T17:29:01;4.07;;;1.45;;
15693;SDS011;7947;48.834;9.132;2022-08-11T17:32:07;1.45;;;1.15;;
15693;SDS011;7947;48.834;9.132;2022-08-11T17:35:51;1.83;;;1.73;;
15693;SDS011;7947;48.834;9.132;2022-08-11T17:38:54;3.88;;;1.60;;
15693;SDS011;7947;48.834;9.132;2022-08-11T17:41:57;3.17;;;1.73;;
15693;SDS011;7947;48.834;9.132;2022-08-11T17:45:19;2.92;;;1.55;;
15693;SDS011;7947;48.834;9.132;2022-08-11T17:48:57;3.35;;;1.50;;
15693;SDS011;7947;48.834;9.132;2022-08-11T17:52:02;1.63;;;1.35;;
15693;SDS011;7947;48.834;9.132;2022-08-11T17:55:24;2.65;;;1.50;;
15693;SDS011;7947;48.834;9.132;2022-08-11T17:58:53;3.30;;;1.52;;
15693;SDS011;7947;48.834;9.132;2022-08-11T18:02:15;3.13;;;1.67;;
15693;SDS011;7947;48.834;9.132;2022-08-11T18:05:41;3.28;;;1.27;;
15693;SDS011;7947;48.834;9.132;2022-08-11T18:08:47;3.67;;;1.50;;
15693;SDS011;7947;48.834;9.132;2022-08-11T18:12:09;1.42;;;1.30;;
15693;SDS011;7947;48.834;9.132;2022-08-11T18:15:30;1.20;;;1.10;;
15693;SDS011;7947;48.834;9.132;2022-08-11T18:18:56;2.45;;;1.50;;
15693;SDS011;7947;48.834;9.132;2022-08-11T18:22:19;2.88;;;1.25;;
15693;SDS011;7947;48.834;9.132;2022-08-11T18:25:43;4.70;;;1.55;;
15693;SDS011;7947;48.834;9.132;2022-08-11T18:29:08;2.50;;;1.27;;
15693;SDS011;7947;48.834;9.132;2022-08-11T18:32:30;2.95;;;1.60;;
15693;SDS011;7947;48.834;9.132;2022-08-11T18:36:10;1.85;;;1.50;;
15693;SDS011;7947;48.834;9.132;2022-08-11T18:39:43;7.32;;;1.75;;
15693;SDS011;7947;48.834;9.132;2022-08-11T18:43:06;4.03;;;1.75;;
15693;SDS011;7947;48.834;9.132;2022-08-11T18:46:32;2.75;;;1.40;;
15693;SDS011;7947;48.834;9.132;2022-08-11T18:49:57;1.95;;;1.38;;
15693;SDS011;7947;48.834;9.132;2022-08-11T18:53:39;2.50;;;1.80;;
15693;SDS011;7947;48.834;9.132;2022-08-11T18:57:04;5.22;;;1.30;;
15693;SDS011;7947;48.834;9.132;2022-08-11T19:00:26;2.20;;;1.55;;
15693;SDS011;7947;48.834;9.132;2022-08-11T19:03:48;4.70;;;1.27;;
15693;SDS011;7947;48.834;9.132;2022-08-11T19:07:17;5.00;;;1.73;;
15693;SDS011;7947;48.834;9.132;2022-08-11T19:10:42;1.98;;;1.35;;
15693;SDS011;7947;48.834;9.132;2022-08-11T19:14:04;3.70;;;1.45;;
15693;SDS011;7947;48.834;9.132;2022-08-11T19:17:26;2.75;;;1.45;;
15693;SDS011;7947;48.834;9.132;2022-08-11T19:20:50;2.80;;;1.40;;
15693;SDS011;7947;48.834;9.132;2022-08-11T19:24:11;1.92;;;1.40;;
15693;SDS011;7947;48.834;9.132;2022-08-11T19:27:35;1.65;;;1.55;;
15693;SDS011;7947;48.834;9.132;2022-08-11T19:30:59;2.60;;;1.58;;
15693;SDS011;7947;48.834;9.132;2022-08-11T19:34:21;3.55;;;1.30;;
15693;SDS011;7947;48.834;9.132;2022-08-11T19:37:43;3.28;;;1.50;;
15693;SDS011;7947;48.834;9.132;2022-08-11T19:41:04;2.13;;;1.70;;
15693;SDS011;7947;48.834;9.132;2022-08-11T19:44:44;2.13;;;1.33;;
15693;SDS011;7947;48.834;9.132;2022-08-11T19:48:06;3.03;;;1.38;;
15693;SDS011;7947;48.834;9.132;2022-08-11T19:51:33;3.65;;;1.55;;
15693;SDS011;7947;48.834;9.132;2022-08-11T19:54:55;2.95;;;1.35;;
15693;SDS011;7947;48.834;9.132;2022-08-11T19:58:16;3.03;;;1.67;;
15693;SDS011;7947;48.834;9.132;2022-08-11T20:01:37;2.25;;;1.52;;
15693;SDS011;7947;48.834;9.132;2022-08-11T20:05:15;2.70;;;1.58;;
15693;SDS011;7947;48.834;9.132;2022-08-11T20:08:57;2.70;;;1.50;;
15693;SDS011;7947;48.834;9.132;2022-08-11T20:12:18;3.25;;;1.40;;
15693;SDS011;7947;48.834;9.132;2022-08-11T20:15:41;2.83;;;1.92;;
15693;SDS011;7947;48.834;9.132;2022-08-11T20:19:01;2.10;;;1.45;;
15693;SDS011;7947;48.834;9.132;2022-08-11T20:22:45;2.53;;;1.70;;
15693;SDS011;7947;48.834;9.132;2022-08-11T20:26:08;4.53;;;1.48;;
15693;SDS011;7947;48.834;9.132;2022-08-11T20:29:32;1.67;;;1.42;;
15693;SDS011;7947;48.834;9.132;2022-08-11T20:32:54;1.60;;;1.50;;
15693;SDS011;7947;48.834;9.132;2022-08-11T20:36:15;4.25;;;1.50;;
15693;SDS011;7947;48.834;9.132;2022-08-11T20:39:38;4.20;;;1.67;;
15693;SDS011;7947;48.834;9.132;2022-08-11T20:43:00;3.10;;;1.52;;
15693;SDS011;7947;48.834;9.132;2022-08-11T20:46:42;2.53;;;1.52;;
15693;SDS011;7947;48.834;9.132;2022-08-11T20:50:03;2.45;;;1.60;;
15693;SDS011;7947;48.834;9.132;2022-08-11T20:53:28;2.60;;;1.40;;
15693;SDS011;7947;48.834;9.132;2022-08-11T20:56:52;2.53;;;1.80;;
15693;SDS011;7947;48.834;9.132;2022-08-11T21:00:17;6.00;;;1.85;;
15693;SDS011;7947;48.834;9.132;2022-08-11T21:03:40;3.10;;;1.77;;
15693;SDS011;7947;48.834;9.132;2022-08-11T21:07:01;4.30;;;2.10;;
15693;SDS011;7947;48.834;9.132;2022-08-11T21:10:29;3.45;;;1.88;;
15693;SDS011;7947;48.834;9.132;2022-08-11T21:13:54;5.35;;;1.90;;
15693;SDS011;7947;48.834;9.132;2022-08-11T21:17:16;3.50;;;1.70;;
15693;SDS011;7947;48.834;9.132;2022-08-11T21:20:59;3.47;;;1.92;;